sensor_id;sensor_type;location;lat;lon;timestamp;pressure;altitude;pressure_sealevel;temperature;humidity
69198;BME280;56311;50.298;8.514;2023-05-20T00:00:00;98200.0;;;10.8;97.1
69198;BME280;56311;50.298;8.514;2023-05-20T00:02:00;98200.0;;;10.8;93.5
69198;BME280;56311;50.298;8.514;2023-05-20T00:04:00;98200.0;;;10.8;94.4
69198;BME280;56311;50.298;8.514;2023-05-20T00:06:00;98200.0;;;10.8;94.2
69198;BME280;56311;50.298;8.514;2023-05-20T00:08:00;98200.0;;;10.8;95.3
69198;BME280;56311;50.298;8.514;2023-05-20T00:10:00;98190.0;;;10.8;96.0
69198;BME280;56311;50.298;8.514;2023-05-20T00:12:00;98190.0;;;10.8;94.7
69198;BME280;56311;50.298;8.514;2023-05-20T00:14:00;98190.0;;;10.8;95.8
69198;BME280;56311;50.298;8.514;2023-05-20T00:16:00;98190.0;;;10.8;95.4
69198;BME280;56311;50.298;8.514;2023-05-20T00:18:01;98190.0;;;10.7;94.3
69198;BME280;56311;50.298;8.514;2023-05-20T00:20:00;98190.0;;;10.8;92.8
69198;BME280;56311;50.298;8.514;2023-05-20T00:22:00;98190.0;;;10.8;93.1
69198;BME280;56311;50.298;8.514;2023-05-20T00:24:00;98190.0;;;10.8;95.9
69198;BME280;56311;50.298;8.514;2023-05-20T00:26:00;98190.0;;;10.8;94.5
69198;BME280;56311;50.298;8.514;2023-05-20T00:28:00;98190.0;;;10.9;92.8
69198;BME280;56311;50.298;8.514;2023-05-20T00:30:00;98180.0;;;10.9;93.0
69198;BME280;56311;50.298;8.514;2023-05-20T00:32:00;98180.0;;;11.0;92.7
69198;BME280;56311;50.298;8.514;2023-05-20T00:34:00;98180.0;;;11.0;92.0
69198;BME280;56311;50.298;8.514;2023-05-20T00:36:00;98180.0;;;11.0;93.1
69198;BME280;56311;50.298;8.514;2023-05-20T00:38:00;98180.0;;;11.0;93.5
69198;BME280;56311;50.298;8.514;2023-05-20T00:40:00;98190.0;;;11.0;94.0
69198;BME280;56311;50.298;8.514;2023-05-20T00:42:00;98190.0;;;11.0;94.7
69198;BME280;56311;50.298;8.514;2023-05-20T00:44:00;98180.0;;;11.0;93.1
69198;BME280;56311;50.298;8.514;2023-05-20T00:46:00;98180.0;;;11.0;92.2
69198;BME280;56311;50.298;8.514;2023-05-20T00:48:00;98180.0;;;11.0;93.5
69198;BME280;56311;50.298;8.514;2023-05-20T00:50:00;98180.0;;;11.1;92.2
69198;BME280;56311;50.298;8.514;2023-05-20T00:52:00;98170.0;;;11.0;91.6
69198;BME280;56311;50.298;8.514;2023-05-20T00:54:00;98180.0;;;11.1;92.7
69198;BME280;56311;50.298;8.514;2023-05-20T00:56:00;98170.0;;;11.0;92.5
69198;BME280;56311;50.298;8.514;2023-05-20T00:58:00;98170.0;;;11.0;92.4
69198;BME280;56311;50.298;8.514;2023-05-20T01:00:00;98170.0;;;11.1;92.0
69198;BME280;56311;50.298;8.514;2023-05-20T01:02:00;98170.0;;;11.1;92.5
69198;BME280;56311;50.298;8.514;2023-05-20T01:04:01;98170.0;;;11.1;93.3
69198;BME280;56311;50.298;8.514;2023-05-20T01:06:01;98170.0;;;11.1;93.4
69198;BME280;56311;50.298;8.514;2023-05-20T01:08:00;98170.0;;;11.1;92.7
69198;BME280;56311;50.298;8.514;2023-05-20T01:10:00;98160.0;;;11.1;92.6
69198;BME280;56311;50.298;8.514;2023-05-20T01:12:04;98160.0;;;11.0;93.7
69198;BME280;56311;50.298;8.514;2023-05-20T01:14:02;98160.0;;;11.1;94.1
69198;BME280;56311;50.298;8.514;2023-05-20T01:16:02;98160.0;;;11.0;93.9
69198;BME280;56311;50.298;8.514;2023-05-20T01:18:02;98170.0;;;11.0;95.0
69198;BME280;56311;50.298;8.514;2023-05-20T01:20:00;98160.0;;;11.0;93.9
69198;BME280;56311;50.298;8.514;2023-05-20T01:22:02;98160.0;;;10.9;94.2
69198;BME280;56311;50.298;8.514;2023-05-20T01:24:00;98160.0;;;11.0;93.7
69198;BME280;56311;50.298;8.514;2023-05-20T01:26:00;98160.0;;;10.9;94.9
69198;BME280;56311;50.298;8.514;2023-05-20T01:28:00;98160.0;;;10.9;94.7
69198;BME280;56311;50.298;8.514;2023-05-20T01:30:00;98160.0;;;10.9;93.9
69198;BME280;56311;50.298;8.514;2023-05-20T01:32:00;98160.0;;;10.9;94.3
69198;BME280;56311;50.298;8.514;2023-05-20T01:34:01;98160.0;;;10.8;94.6
69198;BME280;56311;50.298;8.514;2023-05-20T01:36:00;98160.0;;;10.8;94.5
69198;BME280;56311;50.298;8.514;2023-05-20T01:38:02;98160.0;;;10.8;94.6
69198;BME280;56311;50.298;8.514;2023-05-20T01:40:01;98150.0;;;10.7;96.2
69198;BME280;56311;50.298;8.514;2023-05-20T01:42:01;98160.0;;;10.6;96.8
69198;BME280;56311;50.298;8.514;2023-05-20T01:44:00;98160.0;;;10.6;97.4
69198;BME280;56311;50.298;8.514;2023-05-20T01:46:00;98160.0;;;10.5;97.2
69198;BME280;56311;50.298;8.514;2023-05-20T01:48:01;98150.0;;;10.4;98.3
69198;BME280;56311;50.298;8.514;2023-05-20T01:50:00;98140.0;;;10.4;97.5
69198;BME280;56311;50.298;8.514;2023-05-20T01:52:00;98140.0;;;10.4;98.0
69198;BME280;56311;50.298;8.514;2023-05-20T01:54:00;98150.0;;;10.4;98.0
69198;BME280;56311;50.298;8.514;2023-05-20T01:56:00;98140.0;;;10.4;99.5
69198;BME280;56311;50.298;8.514;2023-05-20T01:58:00;98140.0;;;10.3;100.0
69198;BME280;56311;50.298;8.514;2023-05-20T02:00:00;98140.0;;;10.3;100.0
69198;BME280;56311;50.298;8.514;2023-05-20T02:02:00;98140.0;;;10.3;100.0
69198;BME280;56311;50.298;8.514;2023-05-20T02:04:00;98140.0;;;10.3;100.0
69198;BME280;56311;50.298;8.514;2023-05-20T02:06:00;98140.0;;;10.2;100.0
69198;BME280;56311;50.298;8.514;2023-05-20T02:08:00;98140.0;;;10.2;100.0
69198;BME280;56311;50.298;8.514;2023-05-20T02:10:00;98140.0;;;10.2;100.0
69198;BME280;56311;50.298;8.514;2023-05-20T02:12:00;98140.0;;;10.1;100.0
69198;BME280;56311;50.298;8.514;2023-05-20T02:14:00;98140.0;;;10.1;100.0
69198;BME280;56311;50.298;8.514;2023-05-20T02:16:00;98130.0;;;10.1;100.0
69198;BME280;56311;50.298;8.514;2023-05-20T02:18:00;98130.0;;;10.1;100.0
69198;BME280;56311;50.298;8.514;2023-05-20T02:20:00;98130.0;;;10.1;100.0
69198;BME280;56311;50.298;8.514;2023-05-20T02:22:00;98130.0;;;10.1;100.0
69198;BME280;56311;50.298;8.514;2023-05-20T02:24:00;98130.0;;;10.1;100.0
69198;BME280;56311;50.298;8.514;2023-05-20T02:26:00;98130.0;;;10.1;100.0
69198;BME280;56311;50.298;8.514;2023-05-20T02:28:00;98130.0;;;10.1;100.0
69198;BME280;56311;50.298;8.514;2023-05-20T02:30:00;98130.0;;;10.1;100.0
69198;BME280;56311;50.298;8.514;2023-05-20T02:32:00;98130.0;;;10.1;100.0
69198;BME280;56311;50.298;8.514;2023-05-20T02:34:00;98130.0;;;10.0;100.0
69198;BME280;56311;50.298;8.514;2023-05-20T02:36:00;98130.0;;;10.1;100.0
69198;BME280;56311;50.298;8.514;2023-05-20T02:38:00;98130.0;;;10.1;100.0
69198;BME280;56311;50.298;8.514;2023-05-20T02:40:00;98120.0;;;10.2;100.0
69198;BME280;56311;50.298;8.514;2023-05-20T02:42:00;98120.0;;;10.2;100.0
69198;BME280;56311;50.298;8.514;2023-05-20T02:44:01;98120.0;;;10.1;100.0
69198;BME280;56311;50.298;8.514;2023-05-20T02:46:00;98120.0;;;10.1;100.0
69198;BME280;56311;50.298;8.514;2023-05-20T02:48:00;98120.0;;;10.1;100.0
69198;BME280;56311;50.298;8.514;2023-05-20T02:50:00;98120.0;;;10.1;100.0
69198;BME280;56311;50.298;8.514;2023-05-20T02:52:00;98120.0;;;10.1;100.0
69198;BME280;56311;50.298;8.514;2023-05-20T02:54:00;98120.0;;;10.1;100.0
69198;BME280;56311;50.298;8.514;2023-05-20T02:56:00;98120.0;;;10.1;100.0
69198;BME280;56311;50.298;8.514;2023-05-20T02:58:00;98130.0;;;10.1;100.0
69198;BME280;56311;50.298;8.514;2023-05-20T03:00:00;98120.0;;;10.2;100.0
69198;BME280;56311;50.298;8.514;2023-05-20T03:02:00;98120.0;;;10.2;100.0
69198;BME280;56311;50.298;8.514;2023-05-20T03:04:01;98120.0;;;10.2;100.0
69198;BME280;56311;50.298;8.514;2023-05-20T03:06:00;98120.0;;;10.2;100.0
69198;BME280;56311;50.298;8.514;2023-05-20T03:08:00;98120.0;;;10.1;100.0
69198;BME280;56311;50.298;8.514;2023-05-20T03:10:00;98120.0;;;10.1;100.0
69198;BME280;56311;50.298;8.514;2023-05-20T03:12:00;98120.0;;;10.2;100.0
69198;BME280;56311;50.298;8.514;2023-05-20T03:14:00;98120.0;;;10.3;100.0
69198;BME280;56311;50.298;8.514;2023-05-20T03:16:00;98120.0;;;10.3;100.0
69198;BME280;56311;50.298;8.514;2023-05-20T03:18:00;98110.0;;;10.4;100.0
69198;BME280;56311;50.298;8.514;2023-05-20T03:20:00;98110.0;;;10.4;100.0
69198;BME280;56311;50.298;8.514;2023-05-20T03:22:00;98110.0;;;10.4;100.0
69198;BME280;56311;50.298;8.514;2023-05-20T03:24:00;98110.0;;;10.4;100.0
69198;BME280;56311;50.298;8.514;2023-05-20T03:26:00;98110.0;;;10.4;100.0
69198;BME280;56311;50.298;8.514;2023-05-20T03:28:00;98110.0;;;10.5;100.0
69198;BME280;56311;50.298;8.514;2023-05-20T03:30:00;98100.0;;;10.5;100.0
69198;BME280;56311;50.298;8.514;2023-05-20T03:32:00;98110.0;;;10.5;100.0
69198;BME280;56311;50.298;8.514;2023-05-20T03:34:00;98110.0;;;10.5;100.0
69198;BME280;56311;50.298;8.514;2023-05-20T03:36:00;98100.0;;;10.6;100.0
69198;BME280;56311;50.298;8.514;2023-05-20T03:38:00;98110.0;;;10.6;100.0
69198;BME280;56311;50.298;8.514;2023-05-20T03:40:00;98100.0;;;10.5;100.0
69198;BME280;56311;50.298;8.514;2023-05-20T03:42:00;98100.0;;;10.5;100.0
69198;BME280;56311;50.298;8.514;2023-05-20T03:44:00;98100.0;;;10.5;100.0
69198;BME280;56311;50.298;8.514;2023-05-20T03:46:00;98090.0;;;10.4;100.0
69198;BME280;56311;50.298;8.514;2023-05-20T03:48:00;98100.0;;;10.5;100.0
69198;BME280;56311;50.298;8.514;2023-05-20T03:50:00;98100.0;;;10.5;100.0
69198;BME280;56311;50.298;8.514;2023-05-20T03:52:00;98090.0;;;10.6;100.0
69198;BME280;56311;50.298;8.514;2023-05-20T03:54:00;98100.0;;;10.6;100.0
69198;BME280;56311;50.298;8.514;2023-05-20T03:56:00;98100.0;;;10.6;100.0
69198;BME280;56311;50.298;8.514;2023-05-20T03:58:00;98100.0;;;10.6;100.0
69198;BME280;56311;50.298;8.514;2023-05-20T04:00:00;98100.0;;;10.6;100.0
69198;BME280;56311;50.298;8.514;2023-05-20T04:02:00;98100.0;;;10.6;100.0
69198;BME280;56311;50.298;8.514;2023-05-20T04:04:00;98100.0;;;10.6;100.0
69198;BME280;56311;50.298;8.514;2023-05-20T04:06:00;98110.0;;;10.6;100.0
69198;BME280;56311;50.298;8.514;2023-05-20T04:08:00;98110.0;;;10.6;100.0
69198;BME280;56311;50.298;8.514;2023-05-20T04:10:00;98110.0;;;10.6;100.0
69198;BME280;56311;50.298;8.514;2023-05-20T04:12:00;98110.0;;;10.6;100.0
69198;BME280;56311;50.298;8.514;2023-05-20T04:14:00;98110.0;;;10.6;100.0
69198;BME280;56311;50.298;8.514;2023-05-20T04:16:00;98110.0;;;10.7;100.0
69198;BME280;56311;50.298;8.514;2023-05-20T04:18:00;98110.0;;;10.7;100.0
69198;BME280;56311;50.298;8.514;2023-05-20T04:20:00;98110.0;;;10.7;100.0
69198;BME280;56311;50.298;8.514;2023-05-20T04:22:00;98110.0;;;10.8;100.0
69198;BME280;56311;50.298;8.514;2023-05-20T04:24:00;98110.0;;;10.7;100.0
69198;BME280;56311;50.298;8.514;2023-05-20T04:26:00;98110.0;;;10.8;100.0
69198;BME280;56311;50.298;8.514;2023-05-20T04:28:00;98110.0;;;10.7;100.0
69198;BME280;56311;50.298;8.514;2023-05-20T04:30:00;98100.0;;;10.8;100.0
69198;BME280;56311;50.298;8.514;2023-05-20T04:32:00;98110.0;;;10.8;100.0
69198;BME280;56311;50.298;8.514;2023-05-20T04:34:00;98110.0;;;10.8;100.0
69198;BME280;56311;50.298;8.514;2023-05-20T04:36:00;98100.0;;;10.8;100.0
69198;BME280;56311;50.298;8.514;2023-05-20T04:38:00;98100.0;;;10.9;100.0
69198;BME280;56311;50.298;8.514;2023-05-20T04:40:00;98100.0;;;10.9;100.0
69198;BME280;56311;50.298;8.514;2023-05-20T04:42:00;98100.0;;;10.9;100.0
69198;BME280;56311;50.298;8.514;2023-05-20T04:44:00;98100.0;;;10.9;100.0
69198;BME280;56311;50.298;8.514;2023-05-20T04:46:00;98100.0;;;11.0;100.0
69198;BME280;56311;50.298;8.514;2023-05-20T04:48:00;98100.0;;;11.0;100.0
69198;BME280;56311;50.298;8.514;2023-05-20T04:50:00;98100.0;;;11.0;100.0
69198;BME280;56311;50.298;8.514;2023-05-20T04:52:00;98100.0;;;11.0;100.0
69198;BME280;56311;50.298;8.514;2023-05-20T04:54:00;98110.0;;;11.0;100.0
69198;BME280;56311;50.298;8.514;2023-05-20T04:56:00;98100.0;;;11.1;100.0
69198;BME280;56311;50.298;8.514;2023-05-20T04:58:00;98100.0;;;11.1;100.0
69198;BME280;56311;50.298;8.514;2023-05-20T05:00:00;98100.0;;;11.1;100.0
69198;BME280;56311;50.298;8.514;2023-05-20T05:02:00;98090.0;;;11.1;100.0
69198;BME280;56311;50.298;8.514;2023-05-20T05:04:00;98100.0;;;11.1;100.0
69198;BME280;56311;50.298;8.514;2023-05-20T05:06:00;98100.0;;;11.2;100.0
69198;BME280;56311;50.298;8.514;2023-05-20T05:08:00;98100.0;;;11.1;100.0
69198;BME280;56311;50.298;8.514;2023-05-20T05:10:00;98100.0;;;11.2;100.0
69198;BME280;56311;50.298;8.514;2023-05-20T05:12:00;98100.0;;;11.2;100.0
69198;BME280;56311;50.298;8.514;2023-05-20T05:14:00;98100.0;;;11.2;100.0
69198;BME280;56311;50.298;8.514;2023-05-20T05:16:01;98100.0;;;11.2;100.0
69198;BME280;56311;50.298;8.514;2023-05-20T05:18:00;98100.0;;;11.2;100.0
69198;BME280;56311;50.298;8.514;2023-05-20T05:20:00;98100.0;;;11.3;100.0
69198;BME280;56311;50.298;8.514;2023-05-20T05:22:00;98100.0;;;11.2;100.0
69198;BME280;56311;50.298;8.514;2023-05-20T05:24:00;98090.0;;;11.2;100.0
69198;BME280;56311;50.298;8.514;2023-05-20T05:26:00;98090.0;;;11.3;100.0
69198;BME280;56311;50.298;8.514;2023-05-20T05:28:00;98090.0;;;11.2;100.0
69198;BME280;56311;50.298;8.514;2023-05-20T05:30:00;98090.0;;;11.3;100.0
69198;BME280;56311;50.298;8.514;2023-05-20T05:32:00;98090.0;;;11.3;100.0
69198;BME280;56311;50.298;8.514;2023-05-20T05:34:00;98090.0;;;11.3;100.0
69198;BME280;56311;50.298;8.514;2023-05-20T05:36:00;98090.0;;;11.4;100.0
69198;BME280;56311;50.298;8.514;2023-05-20T05:38:00;98090.0;;;11.4;100.0
69198;BME280;56311;50.298;8.514;2023-05-20T05:40:00;98090.0;;;11.4;100.0
69198;BME280;56311;50.298;8.514;2023-05-20T05:42:00;98090.0;;;11.4;100.0
69198;BME280;56311;50.298;8.514;2023-05-20T05:44:00;98090.0;;;11.5;100.0
69198;BME280;56311;50.298;8.514;2023-05-20T05:46:00;98090.0;;;11.5;100.0
69198;BME280;56311;50.298;8.514;2023-05-20T05:48:00;98090.0;;;11.6;100.0
69198;BME280;56311;50.298;8.514;2023-05-20T05:50:00;98090.0;;;11.5;100.0
69198;BME280;56311;50.298;8.514;2023-05-20T05:52:00;98080.0;;;11.6;100.0
69198;BME280;56311;50.298;8.514;2023-05-20T05:54:00;98080.0;;;11.6;100.0
69198;BME280;56311;50.298;8.514;2023-05-20T05:56:00;98090.0;;;11.5;100.0
69198;BME280;56311;50.298;8.514;2023-05-20T05:58:00;98080.0;;;11.5;100.0
69198;BME280;56311;50.298;8.514;2023-05-20T06:00:00;98080.0;;;11.5;100.0
69198;BME280;56311;50.298;8.514;2023-05-20T06:02:00;98090.0;;;11.6;100.0
69198;BME280;56311;50.298;8.514;2023-05-20T06:04:00;98080.0;;;11.6;100.0
69198;BME280;56311;50.298;8.514;2023-05-20T06:06:00;98080.0;;;11.6;100.0
69198;BME280;56311;50.298;8.514;2023-05-20T06:08:00;98080.0;;;11.7;100.0
69198;BME280;56311;50.298;8.514;2023-05-20T06:10:00;98080.0;;;11.7;100.0
69198;BME280;56311;50.298;8.514;2023-05-20T06:12:00;98090.0;;;11.7;100.0
69198;BME280;56311;50.298;8.514;2023-05-20T06:14:00;98080.0;;;11.7;100.0
69198;BME280;56311;50.298;8.514;2023-05-20T06:16:00;98080.0;;;11.7;100.0
69198;BME280;56311;50.298;8.514;2023-05-20T06:18:00;98080.0;;;11.7;100.0
69198;BME280;56311;50.298;8.514;2023-05-20T06:20:01;98080.0;;;11.8;100.0
69198;BME280;56311;50.298;8.514;2023-05-20T06:22:00;98080.0;;;11.8;100.0
69198;BME280;56311;50.298;8.514;2023-05-20T06:24:00;98080.0;;;11.9;100.0
69198;BME280;56311;50.298;8.514;2023-05-20T06:26:00;98080.0;;;11.9;100.0
69198;BME280;56311;50.298;8.514;2023-05-20T06:28:00;98080.0;;;11.9;100.0
69198;BME280;56311;50.298;8.514;2023-05-20T06:30:00;98080.0;;;12.0;100.0
69198;BME280;56311;50.298;8.514;2023-05-20T06:32:00;98080.0;;;12.1;100.0
69198;BME280;56311;50.298;8.514;2023-05-20T06:34:00;98080.0;;;12.1;100.0
69198;BME280;56311;50.298;8.514;2023-05-20T06:36:00;98080.0;;;12.1;100.0
69198;BME280;56311;50.298;8.514;2023-05-20T06:38:01;98080.0;;;12.1;100.0
69198;BME280;56311;50.298;8.514;2023-05-20T06:40:00;98080.0;;;12.2;100.0
69198;BME280;56311;50.298;8.514;2023-05-20T06:42:00;98070.0;;;12.3;100.0
69198;BME280;56311;50.298;8.514;2023-05-20T06:44:00;98080.0;;;12.4;100.0
69198;BME280;56311;50.298;8.514;2023-05-20T06:46:00;98080.0;;;12.4;100.0
69198;BME280;56311;50.298;8.514;2023-05-20T06:48:00;98070.0;;;12.3;100.0
69198;BME280;56311;50.298;8.514;2023-05-20T06:50:00;98070.0;;;12.3;100.0
69198;BME280;56311;50.298;8.514;2023-05-20T06:52:00;98070.0;;;12.3;100.0
69198;BME280;56311;50.298;8.514;2023-05-20T06:54:00;98070.0;;;12.2;100.0
69198;BME280;56311;50.298;8.514;2023-05-20T06:56:00;98070.0;;;12.2;100.0
69198;BME280;56311;50.298;8.514;2023-05-20T06:58:00;98070.0;;;12.3;100.0
69198;BME280;56311;50.298;8.514;2023-05-20T07:00:00;98070.0;;;12.3;100.0
69198;BME280;56311;50.298;8.514;2023-05-20T07:02:00;98070.0;;;12.2;100.0
69198;BME280;56311;50.298;8.514;2023-05-20T07:04:00;98070.0;;;12.1;100.0
69198;BME280;56311;50.298;8.514;2023-05-20T07:06:00;98070.0;;;12.2;100.0
69198;BME280;56311;50.298;8.514;2023-05-20T07:08:00;98070.0;;;12.2;100.0
69198;BME280;56311;50.298;8.514;2023-05-20T07:10:00;98070.0;;;12.1;100.0
69198;BME280;56311;50.298;8.514;2023-05-20T07:12:00;98070.0;;;12.2;100.0
69198;BME280;56311;50.298;8.514;2023-05-20T07:14:00;98060.0;;;12.3;100.0
69198;BME280;56311;50.298;8.514;2023-05-20T07:16:00;98060.0;;;12.2;100.0
69198;BME280;56311;50.298;8.514;2023-05-20T07:18:00;98060.0;;;12.4;100.0
69198;BME280;56311;50.298;8.514;2023-05-20T07:20:00;98060.0;;;12.4;100.0
69198;BME280;56311;50.298;8.514;2023-05-20T07:22:00;98060.0;;;12.5;100.0
69198;BME280;56311;50.298;8.514;2023-05-20T07:24:01;98060.0;;;12.5;100.0
69198;BME280;56311;50.298;8.514;2023-05-20T07:26:00;98060.0;;;12.5;100.0
69198;BME280;56311;50.298;8.514;2023-05-20T07:28:00;98060.0;;;12.4;100.0
69198;BME280;56311;50.298;8.514;2023-05-20T07:30:00;98060.0;;;12.2;100.0
69198;BME280;56311;50.298;8.514;2023-05-20T07:32:00;98060.0;;;12.3;100.0
69198;BME280;56311;50.298;8.514;2023-05-20T07:34:00;98060.0;;;12.3;100.0
69198;BME280;56311;50.298;8.514;2023-05-20T07:36:00;98050.0;;;12.4;100.0
69198;BME280;56311;50.298;8.514;2023-05-20T07:38:00;98050.0;;;12.4;100.0
69198;BME280;56311;50.298;8.514;2023-05-20T07:40:00;98060.0;;;12.4;100.0
69198;BME280;56311;50.298;8.514;2023-05-20T07:42:00;98060.0;;;12.5;100.0
